Time;durP1;ratioP1;P1;durP2;ratioP2;P2;SDS_P1;SDS_P2;PMS_P1;PMS_P2;Temp;Humidity;BMP_temperature;BMP_pressure;BME280_temperature;BME280_humidity;BME280_pressure;Samples;Min_cycle;Max_cycle;Signal;HPM_P1;HPM_P2
2022/08/25 04:01:18;;;;;;;6.27;5.87;;;19.80;99.90;;;;;;5567222;23;20483;-62
2022/08/25 04:03:45;;;;;;;6.20;5.80;;;19.80;99.90;;;;;;4977214;28;20459;-62
2022/08/25 04:06:13;;;;;;;6.77;6.20;;;19.90;99.90;;;;;;4977046;28;20454;-62
2022/08/25 04:08:40;;;;;;;6.73;6.23;;;19.90;99.90;;;;;;4977034;28;20466;-62
2022/08/25 04:11:09;;;;;;;6.57;6.07;;;19.90;99.90;;;;;;4976935;28;20475;-62
2022/08/25 04:13:35;;;;;;;8.77;6.80;;;19.80;99.90;;;;;;4976204;28;20454;-62
2022/08/25 04:16:03;;;;;;;6.23;5.80;;;19.90;99.90;;;;;;4977482;28;20505;-62
2022/08/25 04:18:33;;;;;;;7.70;7.10;;;19.90;99.90;;;;;;4976995;28;20458;-62
2022/08/25 04:21:03;;;;;;;7.37;6.77;;;19.90;99.90;;;;;;4977930;28;20855;-62
2022/08/25 04:23:30;;;;;;;7.07;6.47;;;19.90;99.90;;;;;;4977647;28;20439;-61
2022/08/25 04:25:57;;;;;;;6.93;6.43;;;20.00;99.90;;;;;;4977275;28;20454;-62
2022/08/25 04:28:24;;;;;;;6.87;6.33;;;19.90;99.90;;;;;;4977546;28;20458;-61
2022/08/25 04:30:51;;;;;;;7.27;6.37;;;20.00;99.90;;;;;;4976606;28;20479;-62
2022/08/25 04:33:17;;;;;;;7.80;7.20;;;19.90;99.90;;;;;;4976696;28;20474;-62
2022/08/25 04:35:49;;;;;;;6.90;6.30;;;20.00;99.90;;;;;;4976282;28;20510;-63
2022/08/25 04:38:16;;;;;;;7.50;6.90;;;20.00;99.90;;;;;;4976472;28;20183;-63
2022/08/25 04:40:43;;;;;;;8.83;6.93;;;20.00;99.90;;;;;;4976263;28;20480;-64
2022/08/25 04:43:09;;;;;;;7.23;6.73;;;20.00;99.90;;;;;;4976201;28;20473;-63
2022/08/25 04:45:37;;;;;;;6.63;6.03;;;20.00;99.90;;;;;;4976063;28;20953;-63
2022/08/25 04:48:04;;;;;;;7.53;6.93;;;20.00;99.90;;;;;;4976649;28;20461;-63
2022/08/25 04:50:31;;;;;;;8.40;7.57;;;20.10;99.90;;;;;;4976025;28;20482;-63
2022/08/25 04:53:00;;;;;;;6.97;6.37;;;20.10;99.90;;;;;;4976151;28;20478;-63
2022/08/25 04:55:26;;;;;;;7.90;7.23;;;20.20;99.90;;;;;;4975996;28;20454;-62
2022/08/25 04:57:53;;;;;;;7.23;6.63;;;20.20;99.90;;;;;;4975928;28;20462;-62
2022/08/25 05:00:20;;;;;;;7.37;6.70;;;20.30;99.90;;;;;;4975568;28;20454;-63
2022/08/25 05:02:46;;;;;;;8.30;7.70;;;20.40;99.90;;;;;;4975863;28;20439;-63
2022/08/25 05:05:13;;;;;;;8.27;7.67;;;20.50;99.90;;;;;;4975809;28;20462;-63
2022/08/25 05:07:40;;;;;;;8.77;8.07;;;20.40;99.90;;;;;;4976001;28;20996;-62
2022/08/25 05:10:08;;;;;;;8.03;7.27;;;20.40;99.90;;;;;;4976936;28;20462;-63
2022/08/25 05:12:35;;;;;;;7.00;6.50;;;20.60;99.90;;;;;;4975592;28;20488;-63
2022/08/25 05:15:49;;;;;;;7.03;6.43;;;20.60;99.90;;;;;;4975792;28;20566;-63
2022/08/25 05:17:49;;;;;;;8.13;7.33;;;20.70;99.90;;;;;;4975305;28;20950;-62
2022/08/25 05:20:16;;;;;;;8.37;7.70;;;20.80;99.90;;;;;;4975564;28;20455;-63
2022/08/25 05:22:45;;;;;;;7.67;6.83;;;20.90;99.90;;;;;;4975574;28;20513;-63
2022/08/25 05:25:14;;;;;;;8.00;7.40;;;21.00;99.90;;;;;;4975374;28;20454;-63
2022/08/25 05:27:41;;;;;;;8.43;7.73;;;21.10;99.90;;;;;;4975292;28;21012;-63
2022/08/25 05:30:10;;;;;;;8.30;7.50;;;21.10;99.90;;;;;;4975458;28;20455;-63
2022/08/25 05:32:36;;;;;;;7.60;7.00;;;21.20;99.90;;;;;;4975286;28;20485;-63
2022/08/25 05:35:04;;;;;;;8.20;7.60;;;21.20;99.90;;;;;;4975424;28;20466;-63
2022/08/25 05:37:31;;;;;;;7.97;7.10;;;21.30;99.90;;;;;;4975332;28;20458;-63
2022/08/25 05:39:58;;;;;;;9.37;8.67;;;21.30;99.90;;;;;;4974965;28;20943;-63
2022/08/25 05:42:27;;;;;;;9.67;8.87;;;21.40;99.90;;;;;;4975240;28;20475;-63
2022/08/25 05:44:54;;;;;;;8.20;7.40;;;21.40;99.90;;;;;;4975668;28;20455;-63
2022/08/25 05:47:21;;;;;;;8.67;7.77;;;21.50;99.90;;;;;;4975335;28;20455;-63
2022/08/25 05:49:47;;;;;;;9.83;8.23;;;21.60;99.90;;;;;;4975380;28;20517;-63
2022/08/25 05:52:14;;;;;;;9.13;7.33;;;21.70;99.90;;;;;;4974714;28;20845;-63
2022/08/25 05:54:41;;;;;;;8.70;7.23;;;21.80;99.90;;;;;;4975164;28;20451;-63
2022/08/25 05:57:08;;;;;;;8.17;7.53;;;21.90;99.90;;;;;;4975149;28;20458;-63
2022/08/25 05:59:36;;;;;;;11.30;9.63;;;22.00;99.90;;;;;;4975083;28;20458;-62
2022/08/25 06:04:46;;;;;;;9.60;8.80;;;22.20;99.90;;;;;;4974905;28;20419;-63
2022/08/25 06:07:13;;;;;;;9.53;8.80;;;22.30;99.90;;;;;;4974744;28;20952;-63
2022/08/25 06:09:44;;;;;;;9.50;8.53;;;22.40;99.90;;;;;;4974958;28;20454;-63
2022/08/25 06:12:12;;;;;;;10.10;9.10;;;22.40;99.90;;;;;;4974411;28;20847;-62
2022/08/25 06:14:40;;;;;;;9.77;8.90;;;22.50;99.90;;;;;;4974836;28;20505;-62
2022/08/25 06:17:07;;;;;;;10.27;9.10;;;22.60;99.90;;;;;;4974924;28;20839;-62
2022/08/25 06:19:34;;;;;;;10.53;9.57;;;22.60;99.90;;;;;;4974928;28;20435;-62
2022/08/25 06:22:01;;;;;;;10.40;9.60;;;22.50;99.90;;;;;;4974557;28;20470;-62
2022/08/25 06:24:29;;;;;;;11.20;10.30;;;22.50;99.90;;;;;;4974770;28;20461;-62
2022/08/25 06:26:56;;;;;;;10.00;9.30;;;22.60;99.90;;;;;;4974696;28;20458;-62
2022/08/25 06:29:23;;;;;;;10.27;9.40;;;22.60;99.90;;;;;;4974772;28;20465;-62
2022/08/25 06:31:51;;;;;;;10.50;9.10;;;22.80;99.90;;;;;;4974566;28;20479;-62
2022/08/25 06:34:18;;;;;;;9.97;9.17;;;23.00;99.90;;;;;;4974686;28;20450;-62
2022/08/25 06:36:45;;;;;;;9.77;8.90;;;23.30;99.90;;;;;;4975122;28;20455;-63
2022/08/25 06:39:12;;;;;;;8.90;8.23;;;23.70;99.90;;;;;;4978257;28;20984;-63
2022/08/25 06:41:39;;;;;;;9.37;8.47;;;24.20;99.90;;;;;;4977998;28;21012;-63
2022/08/25 06:44:06;;;;;;;8.07;7.47;;;24.80;99.90;;;;;;4978538;28;20441;-63
2022/08/25 06:46:34;;;;;;;8.07;7.47;;;25.40;99.90;;;;;;4978413;28;20818;-63
2022/08/25 06:49:02;;;;;;;7.80;7.20;;;26.10;99.90;;;;;;4978303;28;20450;-63
2022/08/25 06:51:28;;;;;;;8.90;7.87;;;26.70;99.90;;;;;;4978255;28;20474;-63
2022/08/25 06:53:55;;;;;;;8.43;7.63;;;27.30;99.90;;;;;;4978061;28;20478;-63
2022/08/25 06:56:22;;;;;;;7.30;6.80;;;27.70;99.90;;;;;;4978303;28;20621;-63
2022/08/25 06:58:49;;;;;;;7.63;7.10;;;28.00;99.90;;;;;;4977758;28;20498;-63
2022/08/25 07:01:18;;;;;;;8.10;7.37;;;28.40;99.90;;;;;;4977850;28;20486;-63
2022/08/25 07:03:45;;;;;;;8.60;8.00;;;28.90;99.60;;;;;;4978113;28;20450;-63
2022/08/25 07:06:13;;;;;;;8.40;7.80;;;29.20;97.90;;;;;;4977995;28;20450;-63
2022/08/25 07:08:40;;;;;;;7.73;7.00;;;29.40;97.90;;;;;;4978065;28;20454;-63
2022/08/25 07:11:07;;;;;;;8.23;7.00;;;29.90;96.70;;;;;;4977958;28;20485;-63
2022/08/25 07:13:35;;;;;;;6.40;6.00;;;29.90;95.20;;;;;;4977992;28;20489;-62
2022/08/25 07:16:02;;;;;;;6.80;6.30;;;30.20;94.70;;;;;;4977972;28;20458;-63
2022/08/25 07:18:29;;;;;;;7.07;6.57;;;30.70;93.40;;;;;;4978047;28;20465;-63
2022/08/25 07:20:56;;;;;;;8.33;7.50;;;30.60;92.50;;;;;;4977674;28;20474;-63
2022/08/25 07:23:25;;;;;;;7.30;6.63;;;31.20;90.80;;;;;;4977727;28;20446;-63
2022/08/25 07:25:52;;;;;;;7.33;6.83;;;31.80;90.10;;;;;;4977735;28;20458;-63
2022/08/25 07:28:20;;;;;;;6.40;5.90;;;32.00;89.30;;;;;;4977848;28;20454;-63
2022/08/25 07:30:47;;;;;;;6.40;6.00;;;32.20;87.10;;;;;;4977543;28;20478;-63
2022/08/25 07:33:14;;;;;;;7.50;7.00;;;32.60;83.50;;;;;;4978293;28;20572;-63
2022/08/25 07:35:40;;;;;;;6.30;5.90;;;32.80;81.20;;;;;;4977282;28;20458;-63
2022/08/25 07:38:08;;;;;;;6.03;5.63;;;32.90;79.80;;;;;;4977471;28;20454;-63
2022/08/25 07:40:38;;;;;;;6.90;6.30;;;33.30;78.10;;;;;;4977328;28;20310;-63
2022/08/25 07:43:07;;;;;;;6.87;5.80;;;33.20;77.30;;;;;;4976885;28;20530;-63
2022/08/25 07:45:36;;;;;;;6.30;5.90;;;33.60;75.90;;;;;;4977361;28;20498;-63
2022/08/25 07:48:05;;;;;;;7.50;6.90;;;33.80;74.10;;;;;;4976919;28;20521;-63
2022/08/25 07:50:33;;;;;;;6.30;5.90;;;33.80;73.20;;;;;;4977038;28;20463;-63
2022/08/25 07:53:00;;;;;;;6.38;5.95;;;34.10;72.40;;;;;;4977075;28;20349;-64
2022/08/25 07:55:29;;;;;;;5.80;5.30;;;34.00;71.60;;;;;;4976256;28;20508;-63
2022/08/25 07:57:58;;;;;;;6.63;5.90;;;34.30;70.70;;;;;;4977153;28;20458;-64
2022/08/25 08:00:28;;;;;;;5.83;5.33;;;34.50;69.30;;;;;;4977105;28;20454;-63
2022/08/25 08:02:56;;;;;;;6.10;5.60;;;34.80;68.50;;;;;;4977234;28;20439;-63
2022/08/25 08:05:24;;;;;;;6.17;5.73;;;35.00;67.00;;;;;;4977064;28;20469;-64
2022/08/25 08:07:51;;;;;;;6.80;6.10;;;35.20;65.80;;;;;;4976930;28;20490;-64
2022/08/25 08:10:17;;;;;;;5.97;5.40;;;35.10;65.50;;;;;;4976925;28;20458;-64
2022/08/25 08:12:44;;;;;;;6.50;6.10;;;35.10;66.10;;;;;;4977167;28;20477;-64
2022/08/25 08:15:13;;;;;;;6.80;6.30;;;35.00;67.50;;;;;;4976714;28;20541;-64
2022/08/25 08:17:40;;;;;;;6.27;5.90;;;35.30;64.60;;;;;;4976405;28;20460;-64
2022/08/25 08:20:09;;;;;;;5.77;5.47;;;35.20;64.10;;;;;;4976720;28;20534;-63
2022/08/25 08:22:39;;;;;;;7.20;6.60;;;35.40;63.80;;;;;;4976275;28;20834;-63
2022/08/25 08:25:07;;;;;;;5.60;5.20;;;35.80;64.10;;;;;;4976611;28;20465;-63
2022/08/25 08:27:34;;;;;;;6.23;5.63;;;35.90;62.70;;;;;;4976333;28;20957;-63
2022/08/25 08:30:01;;;;;;;5.53;5.23;;;36.00;61.60;;;;;;4976538;28;20462;-63
2022/08/25 08:32:29;;;;;;;5.83;5.50;;;36.10;60.90;;;;;;4976473;28;20478;-63
2022/08/25 08:34:56;;;;;;;6.20;5.70;;;36.00;60.80;;;;;;4976466;28;20479;-63
2022/08/25 08:37:23;;;;;;;6.30;5.80;;;36.20;60.00;;;;;;4976467;28;20509;-63
2022/08/25 08:39:51;;;;;;;6.50;5.93;;;36.30;60.90;;;;;;4976407;28;20446;-63
2022/08/25 08:42:28;;;;;;;6.10;5.70;;;36.30;60.00;;;;;;4976435;28;20517;-63
2022/08/25 08:45:06;;;;;;;6.13;5.63;;;36.90;59.10;;;;;;4976471;28;20445;-63
2022/08/25 08:47:49;;;;;;;6.20;5.80;;;37.10;58.00;;;;;;4976418;28;20537;-63
2022/08/25 08:50:28;;;;;;;6.00;5.57;;;37.30;57.70;;;;;;4976630;28;20438;-63
2022/08/25 08:53:02;;;;;;;6.40;6.00;;;37.00;57.50;;;;;;4976158;28;20474;-63
2022/08/25 08:55:33;;;;;;;6.37;5.80;;;37.00;57.30;;;;;;4976716;28;20437;-63
2022/08/25 08:58:02;;;;;;;6.63;6.00;;;37.10;56.70;;;;;;4976625;28;20454;-63
2022/08/25 09:00:32;;;;;;;5.23;4.93;;;37.00;56.80;;;;;;4974952;28;20941;-63
2022/08/25 09:03:06;;;;;;;7.23;6.70;;;37.30;57.20;;;;;;4976103;28;20435;-63
2022/08/25 09:05:40;;;;;;;6.23;5.73;;;37.20;56.10;;;;;;4975970;28;20520;-63
2022/08/25 09:08:10;;;;;;;6.00;5.40;;;37.50;56.30;;;;;;4975779;28;20443;-63
2022/08/25 09:10:44;;;;;;;5.90;5.37;;;37.90;55.20;;;;;;4975738;28;20473;-63
2022/08/25 09:13:19;;;;;;;5.40;5.00;;;37.70;54.20;;;;;;4975687;28;20466;-63
2022/08/25 09:18:49;;;;;;;5.20;4.90;;;38.00;53.80;;;;;;4975735;28;20909;-63
2022/08/25 09:21:24;;;;;;;5.43;5.13;;;38.30;54.30;;;;;;4975557;28;20481;-63
2022/08/25 09:24:05;;;;;;;4.60;4.27;;;38.40;53.20;;;;;;4975194;28;20905;-63
2022/08/25 09:26:38;;;;;;;5.27;4.97;;;38.70;52.70;;;;;;4975332;28;21014;-63
2022/08/25 09:29:10;;;;;;;5.07;4.77;;;38.40;52.80;;;;;;4975270;28;20844;-63
2022/08/25 09:31:39;;;;;;;5.33;4.90;;;38.80;52.50;;;;;;4975485;28;20478;-63
2022/08/25 09:34:11;;;;;;;4.50;4.30;;;38.50;51.80;;;;;;4975010;28;20485;-63
2022/08/25 09:36:38;;;;;;;4.63;4.30;;;38.90;51.20;;;;;;4975390;28;20477;-63
2022/08/25 09:39:05;;;;;;;5.03;4.63;;;39.20;50.60;;;;;;4975227;28;20815;-63
2022/08/25 09:41:43;;;;;;;5.10;4.70;;;39.30;49.60;;;;;;4975211;28;20485;-63
2022/08/25 09:44:18;;;;;;;4.50;4.30;;;39.40;49.90;;;;;;4975713;28;20441;-63
2022/08/25 09:46:55;;;;;;;5.07;4.77;;;39.30;50.00;;;;;;4975275;28;20849;-63
2022/08/25 09:49:36;;;;;;;5.23;4.83;;;39.40;50.20;;;;;;4975202;28;20443;-63
2022/08/25 09:52:26;;;;;;;5.37;4.97;;;39.70;49.60;;;;;;4976009;28;20278;-63
2022/08/25 09:54:53;;;;;;;5.37;4.70;;;39.90;48.40;;;;;;4975087;28;20943;-63
2022/08/25 09:57:33;;;;;;;4.80;4.50;;;40.20;48.80;;;;;;4975033;28;20195;-63
2022/08/25 10:00:15;;;;;;;5.40;4.90;;;40.50;48.00;;;;;;4974845;28;20653;-64
2022/08/25 10:02:43;;;;;;;5.77;5.40;;;40.30;47.70;;;;;;4975024;28;20187;-63
2022/08/25 10:05:24;;;;;;;4.70;4.50;;;40.30;47.20;;;;;;4975741;28;20577;-63
2022/08/25 10:07:55;;;;;;;5.43;5.03;;;40.60;48.00;;;;;;4975356;28;20308;-63
2022/08/25 10:10:28;;;;;;;4.87;4.57;;;40.90;46.00;;;;;;4974470;28;20185;-62
2022/08/25 10:12:58;;;;;;;5.83;5.30;;;40.80;46.10;;;;;;4979484;28;20238;-63
2022/08/25 10:15:28;;;;;;;4.37;4.17;;;40.90;46.50;;;;;;4978557;28;20658;-63
2022/08/25 10:17:55;;;;;;;4.77;4.37;;;40.90;46.50;;;;;;4978984;28;20249;-63
2022/08/25 10:20:25;;;;;;;5.55;4.40;;;41.20;45.70;;;;;;4978763;28;20198;-63
2022/08/25 10:22:55;;;;;;;4.67;4.47;;;41.30;44.60;;;;;;4978656;28;20193;-63
2022/08/25 10:25:29;;;;;;;5.50;5.20;;;41.00;45.30;;;;;;4979066;28;20548;-63
2022/08/25 10:28:15;;;;;;;4.67;4.47;;;40.70;45.90;;;;;;4979133;28;20191;-63
2022/08/25 10:30:55;;;;;;;5.57;5.27;;;39.90;46.00;;;;;;4978533;28;20242;-63
2022/08/25 10:33:30;;;;;;;5.20;4.80;;;39.30;47.50;;;;;;4978396;28;20819;-62
2022/08/25 10:36:06;;;;;;;5.03;4.73;;;39.00;48.50;;;;;;4978481;28;20441;-62
2022/08/25 10:38:39;;;;;;;5.37;4.87;;;38.70;48.50;;;;;;4978644;28;20442;-66
2022/08/25 10:41:23;;;;;;;5.97;4.77;;;38.10;47.90;;;;;;4977998;28;20531;-63
2022/08/25 10:43:57;;;;;;;6.60;4.70;;;37.50;49.10;;;;;;4978357;28;20544;-63
2022/08/25 10:46:32;;;;;;;5.27;4.97;;;37.00;49.70;;;;;;4978571;28;20454;-62
2022/08/25 10:49:04;;;;;;;5.50;5.10;;;36.40;50.90;;;;;;4978245;28;20472;-62
2022/08/25 10:51:43;;;;;;;5.93;5.53;;;35.60;51.80;;;;;;4977860;28;20841;-62
2022/08/25 10:54:22;;;;;;;5.47;5.17;;;35.30;52.80;;;;;;4978438;28;20488;-62
2022/08/25 10:56:59;;;;;;;5.40;5.10;;;35.00;54.30;;;;;;4978460;28;20442;-62
2022/08/25 10:59:48;;;;;;;5.53;5.13;;;34.90;54.40;;;;;;4978282;28;20438;-62
2022/08/25 11:02:48;;;;;;;5.57;5.07;;;35.10;53.30;;;;;;4977792;28;20477;-62
2022/08/25 11:05:23;;;;;;;5.73;5.23;;;34.90;53.60;;;;;;4973378;28;20477;-62
2022/08/25 11:07:57;;;;;;;5.20;4.90;;;34.60;53.90;;;;;;4978136;28;20442;-62
2022/08/25 11:10:28;;;;;;;6.00;5.50;;;34.80;54.70;;;;;;4978018;28;20458;-62
2022/08/25 11:12:58;;;;;;;5.30;4.80;;;35.40;53.70;;;;;;4977947;28;20814;-62
2022/08/25 11:15:28;;;;;;;5.80;5.40;;;35.80;53.60;;;;;;4978049;28;20474;-62
2022/08/25 11:17:58;;;;;;;5.40;4.90;;;35.10;52.70;;;;;;4977920;28;20453;-61
2022/08/25 11:20:33;;;;;;;5.67;5.00;;;35.10;54.10;;;;;;4977870;28;20453;-66
2022/08/25 11:23:08;;;;;;;5.50;5.00;;;35.20;54.50;;;;;;4977321;28;20473;-64
2022/08/25 11:25:40;;;;;;;5.90;5.53;;;35.20;54.20;;;;;;4977742;28;20438;-62
2022/08/25 11:28:12;;;;;;;5.83;5.43;;;34.60;54.30;;;;;;4977811;28;20440;-62
2022/08/25 11:30:39;;;;;;;5.13;4.83;;;34.30;55.20;;;;;;4977926;28;20485;-61
2022/08/25 11:33:07;;;;;;;4.90;4.60;;;34.10;55.40;;;;;;4978437;28;20458;-61
2022/08/25 11:35:38;;;;;;;5.97;5.43;;;34.20;55.90;;;;;;4977240;28;20969;-61
2022/08/25 11:38:24;;;;;;;5.77;5.30;;;34.10;55.10;;;;;;4977854;28;20501;-62
2022/08/25 11:41:03;;;;;;;5.73;5.23;;;33.60;56.30;;;;;;4977734;28;21019;-61
2022/08/25 11:43:44;;;;;;;5.53;5.07;;;33.20;56.80;;;;;;4977743;28;20789;-61
2022/08/25 11:46:27;;;;;;;5.20;4.90;;;32.90;57.90;;;;;;4977460;28;20443;-61
2022/08/25 11:49:03;;;;;;;5.23;4.83;;;32.70;57.70;;;;;;4977554;28;20442;-64
2022/08/25 11:51:33;;;;;;;5.20;4.80;;;32.40;57.60;;;;;;4977467;28;20832;-62
2022/08/25 11:54:21;;;;;;;5.40;5.00;;;32.10;59.10;;;;;;4977194;28;20483;-62
2022/08/25 11:56:58;;;;;;;4.23;4.03;;;31.90;60.00;;;;;;4977413;28;20449;-61
2022/08/25 12:00:01;;;;;;;5.43;4.93;;;32.10;59.70;;;;;;4977197;28;20447;-61
2022/08/25 12:02:32;;;;;;;4.97;4.77;;;32.40;58.70;;;;;;4976735;28;20564;-62
2022/08/25 12:04:59;;;;;;;4.33;4.13;;;32.70;58.10;;;;;;4977218;28;20501;-62
2022/08/25 12:07:28;;;;;;;6.10;5.63;;;33.10;59.60;;;;;;4977607;28;20458;-62
2022/08/25 12:10:47;;;;;;;4.93;4.50;;;33.40;57.90;;;;;;4977014;28;20450;-62
2022/08/25 12:13:41;;;;;;;4.47;4.07;;;33.60;56.60;;;;;;4977188;28;20961;-62
2022/08/25 12:16:37;;;;;;;5.30;4.90;;;33.50;56.70;;;;;;4976239;28;20461;-63
2022/08/25 12:19:26;;;;;;;4.50;4.20;;;33.50;57.10;;;;;;4978307;28;20469;-62
2022/08/25 12:21:54;;;;;;;4.63;4.40;;;33.80;56.10;;;;;;4977451;28;20474;-61
2022/08/25 12:24:24;;;;;;;3.97;3.77;;;34.00;56.30;;;;;;4976923;28;20438;-62
2022/08/25 12:26:57;;;;;;;5.60;4.07;;;34.20;54.70;;;;;;4976733;28;20445;-62
2022/08/25 12:29:41;;;;;;;3.90;3.60;;;34.40;54.90;;;;;;4976342;28;20910;-62
2022/08/25 12:32:27;;;;;;;4.97;4.57;;;34.70;54.70;;;;;;4976602;28;20476;-62
2022/08/25 12:35:19;;;;;;;4.37;4.17;;;34.90;53.90;;;;;;4975559;28;20536;-62
2022/08/25 12:37:58;;;;;;;4.53;4.13;;;35.20;54.70;;;;;;4976703;28;20806;-63
2022/08/25 12:40:28;;;;;;;5.47;4.20;;;35.20;52.80;;;;;;4976395;28;20452;-62
2022/08/25 12:43:07;;;;;;;4.17;3.83;;;35.30;54.00;;;;;;4976422;28;20435;-63
2022/08/25 12:45:44;;;;;;;4.10;3.80;;;35.10;53.40;;;;;;4977417;28;20520;-64
2022/08/25 12:48:41;;;;;;;5.90;4.20;;;35.20;54.20;;;;;;4976735;28;20442;-61
2022/08/25 12:51:16;;;;;;;4.00;3.70;;;35.10;54.30;;;;;;4976260;28;20474;-61
2022/08/25 12:53:46;;;;;;;3.90;3.60;;;35.00;53.50;;;;;;4976191;28;20433;-62
2022/08/25 12:56:22;;;;;;;4.03;3.73;;;34.80;54.70;;;;;;4976520;28;20534;-61
2022/08/25 12:58:55;;;;;;;3.77;3.47;;;35.00;54.60;;;;;;4977353;28;20549;-62
2022/08/25 13:01:33;;;;;;;4.33;3.90;;;34.90;52.10;;;;;;4975700;28;20855;-61
2022/08/25 13:04:40;;;;;;;3.97;3.73;;;34.80;51.70;;;;;;4976016;28;20497;-62
2022/08/25 13:07:20;;;;;;;4.00;3.70;;;34.60;52.40;;;;;;4954048;28;20450;-62
2022/08/25 13:10:11;;;;;;;3.60;3.40;;;34.50;52.50;;;;;;4976052;28;20456;-62
2022/08/25 13:12:45;;;;;;;3.80;3.50;;;34.50;53.10;;;;;;4975935;28;20529;-62
2022/08/25 13:15:15;;;;;;;4.10;3.80;;;34.70;51.90;;;;;;4975536;28;20992;-62
2022/08/25 13:17:42;;;;;;;3.63;3.50;;;34.80;52.70;;;;;;4976346;28;20454;-61
2022/08/25 13:20:15;;;;;;;4.30;3.37;;;34.80;53.50;;;;;;4975622;28;20516;-61
2022/08/25 13:22:44;;;;;;;3.70;3.57;;;35.00;52.90;;;;;;4975945;28;20544;-61
2022/08/25 13:25:16;;;;;;;5.70;3.97;;;34.90;53.10;;;;;;4975847;28;20501;-62
2022/08/25 13:27:50;;;;;;;4.17;3.87;;;34.90;53.70;;;;;;4975456;28;20912;-61
2022/08/25 13:30:24;;;;;;;3.90;3.70;;;34.90;52.70;;;;;;4975652;28;20906;-62
2022/08/25 13:32:51;;;;;;;3.30;3.10;;;34.90;53.60;;;;;;4975518;28;20443;-60
2022/08/25 13:35:20;;;;;;;3.57;3.27;;;35.00;51.40;;;;;;4974978;28;20882;-64
2022/08/25 13:37:47;;;;;;;3.47;3.17;;;34.70;50.20;;;;;;4975440;28;20461;-62
2022/08/25 13:40:16;;;;;;;3.50;3.30;;;34.60;50.40;;;;;;4975579;28;20453;-61
2022/08/25 13:42:45;;;;;;;3.50;3.30;;;34.50;50.50;;;;;;4975321;28;20462;-62
2022/08/25 13:45:16;;;;;;;3.17;2.97;;;34.50;51.40;;;;;;4975243;28;20457;-60
2022/08/25 13:47:45;;;;;;;3.07;2.97;;;34.50;51.70;;;;;;4975144;28;20446;-60
2022/08/25 13:50:18;;;;;;;3.40;3.20;;;34.50;50.70;;;;;;4974975;28;20458;-61
2022/08/25 13:52:49;;;;;;;3.03;2.93;;;34.50;51.00;;;;;;4975805;28;20461;-62
2022/08/25 13:55:22;;;;;;;3.33;3.23;;;34.50;51.50;;;;;;4975120;28;20462;-60
2022/08/25 13:57:50;;;;;;;3.87;3.57;;;34.50;51.20;;;;;;4975108;28;20438;-61
2022/08/25 14:00:31;;;;;;;4.33;3.60;;;34.30;51.40;;;;;;4974694;28;20458;-62
2022/08/25 14:03:00;;;;;;;3.40;3.20;;;34.20;51.10;;;;;;4974961;28;20458;-61
2022/08/25 14:05:37;;;;;;;3.40;3.20;;;34.00;51.40;;;;;;4975081;28;20451;-62
2022/08/25 14:08:04;;;;;;;3.80;3.60;;;34.00;52.60;;;;;;4975065;28;20445;-60
2022/08/25 14:10:38;;;;;;;3.60;3.40;;;34.00;52.60;;;;;;4974993;28;20849;-60
2022/08/25 14:13:14;;;;;;;3.63;3.47;;;33.90;52.20;;;;;;4975177;28;20443;-61
2022/08/25 14:15:43;;;;;;;3.50;3.30;;;33.70;51.90;;;;;;4974909;28;20484;-62
2022/08/25 14:18:18;;;;;;;3.73;3.43;;;33.80;51.40;;;;;;4975011;28;20792;-61
2022/08/25 14:20:49;;;;;;;3.60;3.40;;;33.60;51.90;;;;;;4974980;28;20888;-62
2022/08/25 14:23:18;;;;;;;3.83;3.63;;;33.60;52.60;;;;;;4974768;28;20534;-62
2022/08/25 14:25:45;;;;;;;4.93;3.27;;;33.60;53.40;;;;;;4974802;28;20455;-62
2022/08/25 14:28:14;;;;;;;3.00;2.90;;;33.60;52.20;;;;;;4974770;28;20465;-62
2022/08/25 14:30:46;;;;;;;6.47;3.37;;;33.50;51.90;;;;;;4974711;28;20806;-61
2022/08/25 14:33:15;;;;;;;3.10;2.97;;;33.20;51.50;;;;;;4974835;28;20445;-63
2022/08/25 14:35:45;;;;;;;3.53;3.33;;;32.90;51.90;;;;;;4974826;28;20842;-63
2022/08/25 14:38:12;;;;;;;3.40;3.20;;;32.70;54.00;;;;;;4974790;28;20454;-63
2022/08/25 14:40:39;;;;;;;5.00;3.20;;;32.70;53.70;;;;;;4974857;28;20485;-63
2022/08/25 14:43:06;;;;;;;3.93;3.63;;;32.90;53.40;;;;;;4974721;28;20454;-63
2022/08/25 14:45:35;;;;;;;3.63;3.43;;;33.00;53.40;;;;;;4974738;28;20454;-63
2022/08/25 14:48:07;;;;;;;3.87;3.57;;;33.10;53.10;;;;;;4974403;28;21016;-62
2022/08/25 14:50:36;;;;;;;2.93;2.83;;;33.20;53.10;;;;;;4974639;28;20493;-62
2022/08/25 14:53:03;;;;;;;5.73;4.00;;;33.20;53.30;;;;;;4974621;28;20458;-62
2022/08/25 14:55:30;;;;;;;3.30;3.20;;;33.20;53.60;;;;;;4974541;28;20478;-62
2022/08/25 14:57:57;;;;;;;3.67;3.47;;;33.10;52.90;;;;;;4975637;28;20968;-62
2022/08/25 15:00:24;;;;;;;3.40;3.10;;;32.90;52.80;;;;;;4978093;28;20525;-62
2022/08/25 15:02:51;;;;;;;3.50;3.20;;;32.80;53.20;;;;;;4978322;28;20442;-63
2022/08/25 15:05:23;;;;;;;4.13;3.87;;;32.70;53.80;;;;;;4978059;28;20480;-65
2022/08/25 15:10:35;;;;;;;3.30;3.13;;;32.70;54.10;;;;;;4978073;28;20846;-62
2022/08/25 15:13:02;;;;;;;3.80;3.60;;;32.80;54.10;;;;;;4978095;28;20450;-63
2022/08/25 15:15:29;;;;;;;3.47;3.27;;;32.90;54.10;;;;;;4977974;28;20466;-63
2022/08/25 15:17:56;;;;;;;3.40;3.20;;;32.80;53.60;;;;;;4977684;28;20458;-63
2022/08/25 15:20:23;;;;;;;3.20;3.10;;;32.80;53.50;;;;;;4977320;28;20815;-62
2022/08/25 15:22:51;;;;;;;3.67;3.40;;;32.80;52.70;;;;;;4977734;28;20458;-64
2022/08/25 15:25:18;;;;;;;3.60;3.40;;;32.80;52.60;;;;;;4977659;28;20450;-63
2022/08/25 15:27:45;;;;;;;3.53;3.37;;;32.70;52.30;;;;;;4977734;28;20457;-63
2022/08/25 15:30:13;;;;;;;3.70;3.40;;;32.50;52.70;;;;;;4978455;28;20454;-64
2022/08/25 15:32:40;;;;;;;3.30;3.17;;;32.40;53.70;;;;;;4977585;28;20510;-63
2022/08/25 15:35:08;;;;;;;3.47;3.27;;;32.30;53.60;;;;;;4977287;28;20482;-67
2022/08/25 15:37:35;;;;;;;3.73;3.00;;;32.10;53.40;;;;;;4977696;28;20485;-62
2022/08/25 15:40:04;;;;;;;3.60;3.40;;;31.90;52.30;;;;;;4977626;28;20455;-63
2022/08/25 15:42:31;;;;;;;3.37;3.07;;;31.90;53.10;;;;;;4977563;28;20478;-62
2022/08/25 15:44:58;;;;;;;4.17;3.87;;;32.00;53.50;;;;;;4977250;28;20981;-63
2022/08/25 15:47:24;;;;;;;3.80;3.60;;;31.90;53.20;;;;;;4977274;28;20465;-62
2022/08/25 15:50:02;;;;;;;3.17;3.07;;;32.00;54.00;;;;;;4977064;28;20962;-62
2022/08/25 15:52:29;;;;;;;5.43;3.17;;;32.10;54.20;;;;;;4977226;28;20485;-62
2022/08/25 15:54:55;;;;;;;4.03;3.20;;;32.00;53.30;;;;;;4977318;28;20471;-61
2022/08/25 15:57:24;;;;;;;5.90;3.33;;;31.80;53.70;;;;;;4977332;28;20531;-61
2022/08/25 15:59:51;;;;;;;4.03;3.20;;;31.70;54.00;;;;;;4977160;28;20466;-64
2022/08/25 16:02:17;;;;;;;3.40;3.20;;;31.40;54.50;;;;;;4976028;28;20469;-62
2022/08/25 16:04:44;;;;;;;3.70;3.50;;;31.50;54.90;;;;;;4977129;28;20462;-62
2022/08/25 16:07:11;;;;;;;2.80;2.70;;;31.40;55.20;;;;;;4977209;28;20805;-63
2022/08/25 16:09:38;;;;;;;3.40;3.17;;;31.40;54.10;;;;;;4976813;28;20458;-62
2022/08/25 16:12:05;;;;;;;3.83;3.50;;;31.40;54.50;;;;;;4976608;28;20990;-62
2022/08/25 16:14:33;;;;;;;4.00;3.70;;;31.40;54.90;;;;;;4977709;28;20462;-63
2022/08/25 16:17:00;;;;;;;3.40;3.20;;;31.30;55.70;;;;;;4977314;28;20479;-62
2022/08/25 16:19:28;;;;;;;3.70;3.40;;;31.30;55.50;;;;;;4976269;28;20961;-62
2022/08/25 16:21:54;;;;;;;4.13;3.90;;;31.30;56.00;;;;;;4975796;28;20471;-62
2022/08/25 16:24:21;;;;;;;3.47;3.27;;;31.30;55.60;;;;;;4976440;28;20509;-68
2022/08/25 16:26:49;;;;;;;3.30;3.00;;;31.30;56.00;;;;;;4977127;28;20459;-62
2022/08/25 16:29:16;;;;;;;3.90;3.63;;;31.30;56.50;;;;;;4976560;28;20451;-62
2022/08/25 16:31:44;;;;;;;3.70;3.50;;;31.30;56.70;;;;;;4976866;28;20474;-63
2022/08/25 16:34:11;;;;;;;3.70;3.57;;;31.20;56.70;;;;;;4976440;28;20461;-62
2022/08/25 16:36:38;;;;;;;7.00;3.13;;;31.10;56.80;;;;;;4977344;28;20475;-64
2022/08/25 16:39:05;;;;;;;3.57;3.37;;;31.10;56.90;;;;;;4976501;28;20454;-64
2022/08/25 16:41:33;;;;;;;3.50;3.30;;;30.90;56.60;;;;;;4976667;28;20497;-64
2022/08/25 16:44:01;;;;;;;3.77;3.57;;;30.90;57.20;;;;;;4976834;28;20458;-64
2022/08/25 16:46:28;;;;;;;5.80;4.00;;;30.90;57.80;;;;;;4976445;28;20934;-63
2022/08/25 16:48:59;;;;;;;4.07;3.87;;;30.80;57.30;;;;;;4976612;28;20454;-65
2022/08/25 16:51:26;;;;;;;3.93;3.70;;;30.70;56.90;;;;;;4976378;28;20478;-65
2022/08/25 16:56:41;;;;;;;4.23;3.20;;;30.70;57.40;;;;;;4975900;28;20567;-64
2022/08/25 16:59:09;;;;;;;3.90;3.60;;;30.60;57.40;;;;;;4975797;28;20874;-64
2022/08/25 17:01:36;;;;;;;3.70;3.60;;;30.60;57.60;;;;;;4975625;28;20478;-64
2022/08/25 17:04:05;;;;;;;3.70;3.50;;;30.50;58.00;;;;;;4975988;28;20455;-65
2022/08/25 17:06:35;;;;;;;3.73;3.53;;;30.40;57.90;;;;;;4975965;28;20450;-64
2022/08/25 17:09:02;;;;;;;3.87;3.57;;;30.40;57.90;;;;;;4976004;28;20446;-64
2022/08/25 17:11:31;;;;;;;3.70;3.40;;;30.30;58.50;;;;;;4976430;28;20479;-64
2022/08/25 17:13:59;;;;;;;4.20;3.90;;;30.20;58.60;;;;;;4975796;28;20454;-65
2022/08/25 17:16:29;;;;;;;3.77;3.47;;;30.20;58.90;;;;;;4976498;28;20599;-66